TGL25C LFPG-LFMN
Flight info
| Callsign | TGL25C |
|---|---|
| Flight time | 1h 25m |
| Altitude | 33000 |
| Route | LATRA DCT LAMUT DCT UTUVA DCT LERGA DCT LIQID DCT LATAM DCT TUNUR DCT NISAR |
| Aircraft | A320/M-SDE3FGHIRWY/LB1 |
Departure
| Time | 2026-05-01 12:00 |
|---|---|
| Airport | Charles de Gaulle International Airport (LFPG) |
Arrival
| Time | 2026-05-01 13:25 |
|---|---|
| Airport | Nice-Côte d'Azur Airport (LFMN) |
| Time | Latitude | Longitude | Altitude | Speed | Heading |
|---|---|---|---|---|---|
| 2026-05-01 11:26 | 49.00538 | 2.56345 | 355 ft | 0 kts | 194° |
| 2026-05-01 11:41 | 49.00541 | 2.56345 | 354 ft | 3 kts | 195° |
| 2026-05-01 11:41 | 49.00560 | 2.56354 | 361 ft | 3 kts | 202° |
| 2026-05-01 11:41 | 49.00578 | 2.56368 | 364 ft | 3 kts | 213° |
| 2026-05-01 11:42 | 49.00594 | 2.56386 | 361 ft | 3 kts | 227° |
| 2026-05-01 11:42 | 49.00605 | 2.56406 | 354 ft | 3 kts | 250° |
| 2026-05-01 11:42 | 49.00608 | 2.56422 | 358 ft | 0 kts | 265° |
| 2026-05-01 11:44 | 49.00607 | 2.56417 | 354 ft | 1 kts | 266° |
| 2026-05-01 11:44 | 49.00605 | 2.56376 | 358 ft | 6 kts | 265° |
| 2026-05-01 11:45 | 49.00601 | 2.56300 | 354 ft | 9 kts | 263° |
| 2026-05-01 11:45 | 49.00594 | 2.56198 | 354 ft | 11 kts | 265° |
| 2026-05-01 11:45 | 49.00582 | 2.56079 | 357 ft | 11 kts | 254° |
| 2026-05-01 11:45 | 49.00566 | 2.55970 | 361 ft | 10 kts | 266° |
| 2026-05-01 11:46 | 49.00568 | 2.55869 | 358 ft | 10 kts | 268° |
| 2026-05-01 11:46 | 49.00564 | 2.55765 | 363 ft | 10 kts | 266° |
| 2026-05-01 11:46 | 49.00559 | 2.55654 | 354 ft | 10 kts | 265° |
| 2026-05-01 11:46 | 49.00552 | 2.55551 | 356 ft | 9 kts | 264° |
| 2026-05-01 11:47 | 49.00553 | 2.55461 | 360 ft | 8 kts | 289° |
| 2026-05-01 11:47 | 49.00597 | 2.55409 | 357 ft | 9 kts | 340° |
| 2026-05-01 11:47 | 49.00668 | 2.55375 | 358 ft | 12 kts | 344° |
| 2026-05-01 11:47 | 49.00748 | 2.55341 | 362 ft | 12 kts | 345° |
| 2026-05-01 11:48 | 49.00833 | 2.55305 | 358 ft | 13 kts | 342° |
| 2026-05-01 11:48 | 49.00922 | 2.55263 | 362 ft | 14 kts | 343° |
| 2026-05-01 11:48 | 49.01015 | 2.55223 | 360 ft | 14 kts | 345° |
| 2026-05-01 11:48 | 49.01112 | 2.55181 | 361 ft | 14 kts | 344° |
| 2026-05-01 11:49 | 49.01207 | 2.55162 | 356 ft | 14 kts | 11° |
| 2026-05-01 11:49 | 49.01294 | 2.55208 | 358 ft | 13 kts | 16° |
| 2026-05-01 11:49 | 49.01380 | 2.55204 | 356 ft | 12 kts | 344° |
| 2026-05-01 11:49 | 49.01456 | 2.55177 | 357 ft | 11 kts | 348° |
| 2026-05-01 11:50 | 49.01535 | 2.55165 | 361 ft | 12 kts | 356° |
| 2026-05-01 11:50 | 49.01621 | 2.55155 | 356 ft | 13 kts | 355° |
| 2026-05-01 11:50 | 49.01715 | 2.55144 | 354 ft | 14 kts | 354° |
| 2026-05-01 11:50 | 49.01817 | 2.55126 | 357 ft | 15 kts | 344° |
| 2026-05-01 11:51 | 49.01854 | 2.55003 | 354 ft | 14 kts | 266° |
| 2026-05-01 11:51 | 49.01849 | 2.54868 | 354 ft | 12 kts | 266° |
| 2026-05-01 11:51 | 49.01841 | 2.54750 | 354 ft | 10 kts | 263° |
| 2026-05-01 11:51 | 49.01834 | 2.54650 | 354 ft | 9 kts | 265° |
| 2026-05-01 11:52 | 49.01832 | 2.54615 | 354 ft | 11 kts | 265° |
| 2026-05-01 11:52 | 49.01819 | 2.54357 | 358 ft | 19 kts | 266° |
| 2026-05-01 11:52 | 49.01811 | 2.54165 | 360 ft | 17 kts | 265° |
| 2026-05-01 11:52 | 49.01802 | 2.53995 | 361 ft | 15 kts | 265° |
| 2026-05-01 11:53 | 49.01793 | 2.53846 | 354 ft | 13 kts | 265° |
| 2026-05-01 11:53 | 49.01786 | 2.53717 | 362 ft | 11 kts | 266° |
| 2026-05-01 11:53 | 49.01781 | 2.53606 | 354 ft | 10 kts | 265° |
| 2026-05-01 11:53 | 49.01774 | 2.53513 | 361 ft | 8 kts | 263° |
| 2026-05-01 11:54 | 49.01770 | 2.53446 | 355 ft | 6 kts | 265° |
| 2026-05-01 11:54 | 49.01765 | 2.53350 | 355 ft | 12 kts | 265° |
| 2026-05-01 11:54 | 49.01758 | 2.53195 | 363 ft | 17 kts | 266° |
| 2026-05-01 11:54 | 49.01750 | 2.53024 | 355 ft | 15 kts | 265° |
| 2026-05-01 11:55 | 49.01742 | 2.52876 | 362 ft | 13 kts | 265° |
| 2026-05-01 11:55 | 49.01735 | 2.52749 | 355 ft | 11 kts | 265° |
| 2026-05-01 11:55 | 49.01729 | 2.52633 | 364 ft | 12 kts | 265° |
| 2026-05-01 11:55 | 49.01721 | 2.52483 | 355 ft | 17 kts | 264° |
| 2026-05-01 11:56 | 49.01710 | 2.52315 | 355 ft | 15 kts | 265° |
| 2026-05-01 11:56 | 49.01714 | 2.52174 | 355 ft | 12 kts | 300° |
| 2026-05-01 11:56 | 49.01787 | 2.52136 | 354 ft | 11 kts | 354° |
| 2026-05-01 11:56 | 49.01857 | 2.52127 | 354 ft | 10 kts | 355° |
| 2026-05-01 11:57 | 49.01934 | 2.52117 | 361 ft | 12 kts | 355° |
| 2026-05-01 11:57 | 49.02004 | 2.52108 | 354 ft | 0 kts | 355° |
| 2026-05-01 11:58 | 49.02021 | 2.52106 | 360 ft | 10 kts | 355° |
| 2026-05-01 11:58 | 49.02111 | 2.52202 | 353 ft | 0 kts | 84° |
| 2026-05-01 11:59 | 49.02124 | 2.52405 | 355 ft | 54 kts | 85° |
| 2026-05-01 11:59 | 49.02172 | 2.53312 | 354 ft | 116 kts | 85° |
| 2026-05-01 11:59 | 49.02251 | 2.54796 | 360 ft | 163 kts | 85° |
| 2026-05-01 12:00 | 49.02448 | 2.58459 | 1522 ft | 174 kts | 87° |
| 2026-05-01 12:00 | 49.02544 | 2.60297 | 2178 ft | 177 kts | 88° |
| 2026-05-01 12:00 | 49.02760 | 2.64487 | 2861 ft | 220 kts | 87° |
| 2026-05-01 12:01 | 49.02889 | 2.66947 | 3198 ft | 245 kts | 87° |
| 2026-05-01 12:01 | 49.03029 | 2.69654 | 3674 ft | 264 kts | 87° |
| 2026-05-01 12:01 | 49.03176 | 2.72484 | 4493 ft | 270 kts | 87° |
| 2026-05-01 12:01 | 49.03326 | 2.75348 | 5351 ft | 272 kts | 87° |
| 2026-05-01 12:02 | 49.03477 | 2.78243 | 6215 ft | 276 kts | 88° |
| 2026-05-01 12:02 | 49.03630 | 2.81169 | 7042 ft | 278 kts | 88° |
| 2026-05-01 12:02 | 49.03783 | 2.84119 | 7865 ft | 281 kts | 88° |
| 2026-05-01 12:02 | 49.03937 | 2.87098 | 8737 ft | 282 kts | 88° |
| 2026-05-01 12:03 | 49.04089 | 2.90090 | 9589 ft | 284 kts | 87° |
| 2026-05-01 12:03 | 49.04228 | 2.93100 | 10403 ft | 286 kts | 91° |
| 2026-05-01 12:03 | 49.03904 | 2.96069 | 11124 ft | 285 kts | 114° |
| 2026-05-01 12:03 | 49.02827 | 2.98641 | 11558 ft | 298 kts | 136° |
| 2026-05-01 12:04 | 49.01027 | 3.00343 | 11883 ft | 315 kts | 162° |
| 2026-05-01 12:04 | 48.98841 | 3.00788 | 12514 ft | 322 kts | 177° |
| 2026-05-01 12:04 | 48.96596 | 3.00886 | 13250 ft | 324 kts | 177° |
| 2026-05-01 12:04 | 48.94331 | 3.00974 | 13993 ft | 326 kts | 178° |
| 2026-05-01 12:05 | 48.92073 | 3.00503 | 14607 ft | 333 kts | 196° |
| 2026-05-01 12:05 | 48.88492 | 2.95978 | 15798 ft | 353 kts | 239° |
| 2026-05-01 12:05 | 48.87728 | 2.92392 | 16394 ft | 363 kts | 255° |
| 2026-05-01 12:06 | 48.87252 | 2.88609 | 17008 ft | 366 kts | 256° |
| 2026-05-01 12:06 | 48.86783 | 2.84796 | 17598 ft | 369 kts | 255° |
| 2026-05-01 12:06 | 48.86310 | 2.80954 | 18181 ft | 372 kts | 255° |
| 2026-05-01 12:06 | 48.85824 | 2.77077 | 18730 ft | 374 kts | 254° |
| 2026-05-01 12:07 | 48.85012 | 2.73358 | 19207 ft | 370 kts | 239° |
| 2026-05-01 12:07 | 48.83827 | 2.69874 | 19691 ft | 373 kts | 238° |
| 2026-05-01 12:07 | 48.82617 | 2.66382 | 20196 ft | 375 kts | 238° |
| 2026-05-01 12:07 | 48.81389 | 2.62875 | 20681 ft | 378 kts | 237° |
| 2026-05-01 12:08 | 48.80569 | 2.60537 | 21008 ft | 380 kts | 237° |
| 2026-05-01 12:08 | 48.79324 | 2.56984 | 21479 ft | 383 kts | 237° |
| 2026-05-01 12:08 | 48.78071 | 2.53409 | 21957 ft | 386 kts | 237° |
| 2026-05-01 12:08 | 48.76802 | 2.49797 | 22411 ft | 389 kts | 237° |
| 2026-05-01 12:09 | 48.75530 | 2.46170 | 22857 ft | 392 kts | 237° |
| 2026-05-01 12:09 | 48.74189 | 2.42571 | 23295 ft | 391 kts | 231° |
| 2026-05-01 12:09 | 48.72490 | 2.39372 | 23741 ft | 388 kts | 220° |
| 2026-05-01 12:09 | 48.70450 | 2.36733 | 24107 ft | 385 kts | 210° |
| 2026-05-01 12:10 | 48.68172 | 2.34615 | 24471 ft | 385 kts | 206° |
| 2026-05-01 12:10 | 48.63536 | 2.30463 | 25211 ft | 389 kts | 206° |
| 2026-05-01 12:10 | 48.61202 | 2.28362 | 25588 ft | 391 kts | 206° |
| 2026-05-01 12:11 | 48.56507 | 2.24129 | 26297 ft | 395 kts | 206° |
| 2026-05-01 12:11 | 48.54138 | 2.22003 | 26653 ft | 397 kts | 206° |
| 2026-05-01 12:11 | 48.51756 | 2.19871 | 27002 ft | 399 kts | 206° |
| 2026-05-01 12:12 | 48.49361 | 2.17740 | 27349 ft | 401 kts | 205° |
| 2026-05-01 12:12 | 48.46805 | 2.16112 | 27470 ft | 399 kts | 189° |
| 2026-05-01 12:12 | 48.44053 | 2.15672 | 27619 ft | 399 kts | 174° |
| 2026-05-01 12:12 | 48.41341 | 2.16489 | 27763 ft | 400 kts | 158° |
| 2026-05-01 12:13 | 48.38896 | 2.18494 | 27932 ft | 403 kts | 144° |
| 2026-05-01 12:13 | 48.36614 | 2.20978 | 28180 ft | 406 kts | 144° |
| 2026-05-01 12:13 | 48.34324 | 2.23486 | 28492 ft | 408 kts | 144° |
| 2026-05-01 12:13 | 48.32025 | 2.26011 | 28789 ft | 410 kts | 144° |
| 2026-05-01 12:14 | 48.29720 | 2.28536 | 29074 ft | 411 kts | 144° |
| 2026-05-01 12:14 | 48.27401 | 2.31063 | 29357 ft | 413 kts | 144° |
| 2026-05-01 12:14 | 48.25067 | 2.33594 | 29671 ft | 414 kts | 144° |
| 2026-05-01 12:14 | 48.22723 | 2.36129 | 29977 ft | 416 kts | 144° |
| 2026-05-01 12:15 | 48.20374 | 2.38671 | 30298 ft | 416 kts | 144° |
| 2026-05-01 12:15 | 48.18030 | 2.41204 | 30641 ft | 415 kts | 144° |
| 2026-05-01 12:15 | 48.15724 | 2.43697 | 30947 ft | 414 kts | 144° |
| 2026-05-01 12:15 | 48.13389 | 2.46218 | 31240 ft | 414 kts | 144° |
| 2026-05-01 12:16 | 48.11056 | 2.48736 | 31524 ft | 414 kts | 144° |
| 2026-05-01 12:16 | 48.08642 | 2.51076 | 31796 ft | 414 kts | 151° |
| 2026-05-01 12:16 | 48.06008 | 2.52822 | 32071 ft | 415 kts | 160° |
| 2026-05-01 12:16 | 48.03264 | 2.54169 | 32372 ft | 415 kts | 160° |
| 2026-05-01 12:17 | 48.00519 | 2.55515 | 32652 ft | 415 kts | 160° |
| 2026-05-01 12:17 | 47.97781 | 2.56865 | 33002 ft | 414 kts | 160° |
| 2026-05-01 12:17 | 47.95038 | 2.58218 | 33195 ft | 416 kts | 160° |
| 2026-05-01 12:17 | 47.92298 | 2.59571 | 33243 ft | 415 kts | 160° |
| 2026-05-01 12:18 | 47.86821 | 2.62263 | 33235 ft | 414 kts | 160° |
| 2026-05-01 12:18 | 47.81352 | 2.64937 | 33231 ft | 414 kts | 160° |
| 2026-05-01 12:19 | 47.75878 | 2.67613 | 33232 ft | 415 kts | 161° |
| 2026-05-01 12:19 | 47.70360 | 2.70303 | 33233 ft | 419 kts | 161° |
| 2026-05-01 12:20 | 47.64820 | 2.72994 | 33231 ft | 419 kts | 161° |
| 2026-05-01 12:20 | 47.59288 | 2.75679 | 33227 ft | 418 kts | 161° |
| 2026-05-01 12:21 | 47.53754 | 2.78369 | 33221 ft | 419 kts | 162° |
| 2026-05-01 12:21 | 47.48208 | 2.81057 | 33212 ft | 420 kts | 162° |
| 2026-05-01 12:22 | 47.42644 | 2.83730 | 33217 ft | 421 kts | 162° |
| 2026-05-01 12:22 | 47.37071 | 2.86404 | 33218 ft | 421 kts | 162° |
| 2026-05-01 12:23 | 47.31488 | 2.89081 | 33205 ft | 423 kts | 163° |
| 2026-05-01 12:23 | 47.25877 | 2.91774 | 33211 ft | 426 kts | 163° |
| 2026-05-01 12:24 | 47.20238 | 2.94463 | 33216 ft | 426 kts | 163° |
| 2026-05-01 12:24 | 47.14602 | 2.97144 | 33224 ft | 426 kts | 163° |
| 2026-05-01 12:25 | 47.06087 | 3.00970 | 33220 ft | 427 kts | 166° |
| 2026-05-01 12:26 | 47.00349 | 3.03259 | 33221 ft | 428 kts | 167° |
| 2026-05-01 12:26 | 46.91728 | 3.06737 | 33212 ft | 429 kts | 167° |
| 2026-05-01 12:27 | 46.83096 | 3.10286 | 33208 ft | 433 kts | 167° |
| 2026-05-01 12:28 | 46.74368 | 3.13841 | 33224 ft | 435 kts | 168° |
| 2026-05-01 12:29 | 46.65604 | 3.17408 | 33218 ft | 436 kts | 167° |
| 2026-05-01 12:29 | 46.56820 | 3.20973 | 33218 ft | 437 kts | 168° |
| 2026-05-01 12:30 | 46.48025 | 3.24515 | 33196 ft | 438 kts | 168° |
| 2026-05-01 12:31 | 46.42156 | 3.26881 | 33209 ft | 439 kts | 168° |
| 2026-05-01 12:31 | 46.36266 | 3.29246 | 33218 ft | 439 kts | 168° |
| 2026-05-01 12:32 | 46.30371 | 3.31607 | 33214 ft | 440 kts | 168° |
| 2026-05-01 12:32 | 46.21503 | 3.35153 | 33220 ft | 442 kts | 168° |
| 2026-05-01 12:33 | 46.15576 | 3.37517 | 33223 ft | 442 kts | 168° |
| 2026-05-01 12:33 | 46.09637 | 3.39881 | 33213 ft | 443 kts | 168° |
| 2026-05-01 12:34 | 46.03721 | 3.42231 | 33216 ft | 444 kts | 168° |
| 2026-05-01 12:34 | 45.97754 | 3.44598 | 33217 ft | 445 kts | 168° |
| 2026-05-01 12:35 | 45.91773 | 3.46963 | 33210 ft | 446 kts | 168° |
| 2026-05-01 12:35 | 45.85787 | 3.49321 | 33219 ft | 447 kts | 168° |
| 2026-05-01 12:36 | 45.79813 | 3.51824 | 33224 ft | 448 kts | 167° |
| 2026-05-01 12:36 | 45.73855 | 3.54452 | 33223 ft | 448 kts | 166° |
| 2026-05-01 12:37 | 45.67895 | 3.57057 | 33219 ft | 448 kts | 166° |
| 2026-05-01 12:37 | 45.61925 | 3.59618 | 33227 ft | 448 kts | 166° |
| 2026-05-01 12:38 | 45.55955 | 3.62168 | 33225 ft | 448 kts | 166° |
| 2026-05-01 12:38 | 45.49983 | 3.64712 | 33229 ft | 448 kts | 166° |
| 2026-05-01 12:39 | 45.44011 | 3.67253 | 33228 ft | 448 kts | 166° |
| 2026-05-01 12:39 | 45.38045 | 3.69796 | 33229 ft | 448 kts | 166° |
| 2026-05-01 12:40 | 45.32076 | 3.72337 | 33227 ft | 448 kts | 165° |
| 2026-05-01 12:40 | 45.26499 | 3.76342 | 33274 ft | 454 kts | 145° |
| 2026-05-01 12:41 | 45.22175 | 3.82821 | 33276 ft | 461 kts | 125° |
| 2026-05-01 12:41 | 45.18713 | 3.90476 | 33272 ft | 461 kts | 125° |
| 2026-05-01 12:42 | 45.15222 | 3.98113 | 33272 ft | 462 kts | 125° |
| 2026-05-01 12:42 | 45.11698 | 4.05725 | 33247 ft | 461 kts | 129° |
| 2026-05-01 12:43 | 45.07274 | 4.12280 | 33259 ft | 457 kts | 138° |
| 2026-05-01 12:43 | 45.02771 | 4.18539 | 33261 ft | 457 kts | 138° |
| 2026-05-01 12:44 | 44.98222 | 4.24820 | 33253 ft | 457 kts | 138° |
| 2026-05-01 12:45 | 44.89110 | 4.37381 | 33259 ft | 458 kts | 138° |
| 2026-05-01 12:45 | 44.84551 | 4.43657 | 33257 ft | 458 kts | 138° |
| 2026-05-01 12:46 | 44.79986 | 4.49917 | 33264 ft | 458 kts | 138° |
| 2026-05-01 12:46 | 44.75426 | 4.56166 | 33267 ft | 458 kts | 138° |
| 2026-05-01 12:47 | 44.70857 | 4.62416 | 33257 ft | 459 kts | 138° |
| 2026-05-01 12:47 | 44.66273 | 4.68667 | 33259 ft | 460 kts | 138° |
| 2026-05-01 12:48 | 44.61672 | 4.74916 | 33261 ft | 460 kts | 138° |
| 2026-05-01 12:48 | 44.57066 | 4.81165 | 33269 ft | 461 kts | 138° |
| 2026-05-01 12:49 | 44.54760 | 4.84286 | 33121 ft | 462 kts | 138° |
| 2026-05-01 12:49 | 44.52450 | 4.87407 | 32860 ft | 462 kts | 138° |
| 2026-05-01 12:49 | 44.50135 | 4.90530 | 32598 ft | 462 kts | 138° |
| 2026-05-01 12:49 | 44.47821 | 4.93651 | 32339 ft | 462 kts | 138° |
| 2026-05-01 12:50 | 44.45506 | 4.96775 | 32080 ft | 463 kts | 137° |
| 2026-05-01 12:50 | 44.43186 | 4.99908 | 31826 ft | 465 kts | 137° |
| 2026-05-01 12:50 | 44.40858 | 5.03048 | 31582 ft | 465 kts | 137° |
| 2026-05-01 12:50 | 44.38552 | 5.06149 | 31331 ft | 466 kts | 137° |
| 2026-05-01 12:51 | 44.36216 | 5.09282 | 31086 ft | 465 kts | 137° |
| 2026-05-01 12:51 | 44.33884 | 5.12404 | 30845 ft | 464 kts | 137° |
| 2026-05-01 12:51 | 44.29204 | 5.18655 | 30355 ft | 461 kts | 137° |
| 2026-05-01 12:52 | 44.26928 | 5.21696 | 30073 ft | 459 kts | 137° |
| 2026-05-01 12:52 | 44.22346 | 5.27819 | 29511 ft | 454 kts | 137° |
| 2026-05-01 12:52 | 44.20071 | 5.30847 | 29235 ft | 451 kts | 137° |
| 2026-05-01 12:53 | 44.15557 | 5.36837 | 28688 ft | 446 kts | 137° |
| 2026-05-01 12:53 | 44.13318 | 5.39808 | 28419 ft | 443 kts | 137° |
| 2026-05-01 12:53 | 44.11087 | 5.42762 | 28148 ft | 441 kts | 137° |
| 2026-05-01 12:54 | 44.08873 | 5.45689 | 27886 ft | 439 kts | 137° |
| 2026-05-01 12:54 | 44.04465 | 5.51515 | 27370 ft | 435 kts | 137° |
| 2026-05-01 12:54 | 44.02272 | 5.54403 | 26966 ft | 432 kts | 137° |
| 2026-05-01 12:55 | 43.97941 | 5.60098 | 25800 ft | 425 kts | 137° |
| 2026-05-01 12:55 | 43.95802 | 5.62910 | 25225 ft | 422 kts | 137° |
| 2026-05-01 12:55 | 43.93682 | 5.65695 | 24666 ft | 418 kts | 137° |
| 2026-05-01 12:56 | 43.92285 | 5.67529 | 24301 ft | 415 kts | 137° |
| 2026-05-01 12:56 | 43.90199 | 5.70269 | 23760 ft | 411 kts | 137° |
| 2026-05-01 12:56 | 43.88108 | 5.73014 | 23193 ft | 406 kts | 136° |
| 2026-05-01 12:56 | 43.86075 | 5.75675 | 22726 ft | 399 kts | 136° |
| 2026-05-01 12:57 | 43.84072 | 5.78293 | 22252 ft | 393 kts | 136° |
| 2026-05-01 12:57 | 43.80173 | 5.83367 | 21369 ft | 381 kts | 136° |
| 2026-05-01 12:57 | 43.78254 | 5.85863 | 20936 ft | 376 kts | 136° |
| 2026-05-01 12:58 | 43.76359 | 5.88333 | 20494 ft | 372 kts | 136° |
| 2026-05-01 12:58 | 43.74484 | 5.90782 | 20047 ft | 369 kts | 136° |
| 2026-05-01 12:58 | 43.72626 | 5.93212 | 19598 ft | 366 kts | 136° |
| 2026-05-01 12:59 | 43.68944 | 5.98005 | 18692 ft | 362 kts | 136° |
| 2026-05-01 12:59 | 43.67111 | 6.00370 | 18194 ft | 359 kts | 135° |
| 2026-05-01 12:59 | 43.63494 | 6.05035 | 17261 ft | 353 kts | 135° |
| 2026-05-01 13:00 | 43.60113 | 6.09858 | 16368 ft | 347 kts | 124° |
| 2026-05-01 13:00 | 43.58894 | 6.12730 | 15876 ft | 349 kts | 114° |
| 2026-05-01 13:01 | 43.57158 | 6.18985 | 14847 ft | 350 kts | 110° |
| 2026-05-01 13:01 | 43.56297 | 6.22123 | 14334 ft | 350 kts | 111° |
| 2026-05-01 13:01 | 43.54562 | 6.28394 | 13267 ft | 349 kts | 110° |
| 2026-05-01 13:02 | 43.53699 | 6.31502 | 12786 ft | 345 kts | 110° |
| 2026-05-01 13:07 | 43.27297 | 6.77043 | 8168 ft | 243 kts | 130° |
| 2026-05-01 13:07 | 43.26167 | 6.78695 | 7918 ft | 231 kts | 130° |
| 2026-05-01 13:07 | 43.25064 | 6.80277 | 7676 ft | 228 kts | 131° |
| 2026-05-01 13:08 | 43.23982 | 6.81841 | 7433 ft | 224 kts | 129° |
| 2026-05-01 13:08 | 43.22925 | 6.83352 | 7326 ft | 214 kts | 130° |
| 2026-05-01 13:08 | 43.21912 | 6.84774 | 7310 ft | 204 kts | 129° |
| 2026-05-01 13:08 | 43.20903 | 6.86121 | 7310 ft | 202 kts | 132° |
| 2026-05-01 13:09 | 43.19906 | 6.87472 | 7311 ft | 202 kts | 130° |
| 2026-05-01 13:09 | 43.19104 | 6.88986 | 7319 ft | 192 kts | 103° |
| 2026-05-01 13:09 | 43.19114 | 6.90740 | 7309 ft | 187 kts | 64° |
| 2026-05-01 13:09 | 43.19846 | 6.92188 | 7313 ft | 185 kts | 49° |
| 2026-05-01 13:10 | 43.20418 | 6.93732 | 7301 ft | 184 kts | 83° |
| 2026-05-01 13:10 | 43.20268 | 6.95506 | 7244 ft | 195 kts | 97° |
| 2026-05-01 13:10 | 43.19892 | 6.97331 | 6790 ft | 202 kts | 102° |
| 2026-05-01 13:10 | 43.19483 | 6.99184 | 6342 ft | 205 kts | 102° |
| 2026-05-01 13:11 | 43.19059 | 7.01026 | 6023 ft | 201 kts | 104° |
| 2026-05-01 13:11 | 43.18636 | 7.02825 | 5721 ft | 196 kts | 103° |
| 2026-05-01 13:11 | 43.18207 | 7.04583 | 5413 ft | 193 kts | 103° |
| 2026-05-01 13:11 | 43.17793 | 7.06307 | 5109 ft | 188 kts | 103° |
| 2026-05-01 13:12 | 43.17379 | 7.07998 | 4819 ft | 186 kts | 103° |
| 2026-05-01 13:12 | 43.16968 | 7.09660 | 4505 ft | 183 kts | 103° |
| 2026-05-01 13:12 | 43.16559 | 7.11301 | 4203 ft | 181 kts | 103° |
| 2026-05-01 13:12 | 43.16149 | 7.12937 | 3855 ft | 182 kts | 103° |
| 2026-05-01 13:13 | 43.15739 | 7.14574 | 3548 ft | 180 kts | 103° |
| 2026-05-01 13:13 | 43.15341 | 7.16171 | 3295 ft | 175 kts | 103° |
| 2026-05-01 13:13 | 43.14957 | 7.17727 | 3070 ft | 169 kts | 100° |
| 2026-05-01 13:13 | 43.14922 | 7.19272 | 2990 ft | 161 kts | 72° |
| 2026-05-01 13:14 | 43.15500 | 7.20564 | 2994 ft | 163 kts | 43° |
| 2026-05-01 13:14 | 43.16537 | 7.21209 | 3012 ft | 172 kts | 12° |
| 2026-05-01 13:14 | 43.17757 | 7.21038 | 3005 ft | 179 kts | 359° |
| 2026-05-01 13:14 | 43.18984 | 7.20808 | 3004 ft | 178 kts | 1° |
| 2026-05-01 13:15 | 43.20211 | 7.20612 | 3003 ft | 177 kts | 1° |
| 2026-05-01 13:15 | 43.21433 | 7.20423 | 3000 ft | 177 kts | 1° |
| 2026-05-01 13:15 | 43.22666 | 7.20232 | 3003 ft | 178 kts | 2° |
| 2026-05-01 13:15 | 43.23898 | 7.20038 | 3002 ft | 178 kts | 1° |
| 2026-05-01 13:16 | 43.25121 | 7.19843 | 2989 ft | 176 kts | 1° |
| 2026-05-01 13:16 | 43.26340 | 7.19645 | 3003 ft | 176 kts | 1° |
| 2026-05-01 13:16 | 43.27556 | 7.19446 | 3004 ft | 176 kts | 1° |
| 2026-05-01 13:17 | 43.31212 | 7.18843 | 3003 ft | 179 kts | 1° |
| 2026-05-01 13:17 | 43.32447 | 7.18638 | 2999 ft | 179 kts | 1° |
| 2026-05-01 13:18 | 43.34920 | 7.18225 | 3010 ft | 179 kts | 1° |
| 2026-05-01 13:18 | 43.36152 | 7.18019 | 3008 ft | 177 kts | 0° |
| 2026-05-01 13:18 | 43.37371 | 7.17815 | 3011 ft | 176 kts | 1° |
| 2026-05-01 13:18 | 43.38586 | 7.17612 | 3010 ft | 176 kts | 1° |
| 2026-05-01 13:19 | 43.39804 | 7.17407 | 3006 ft | 176 kts | 1° |
| 2026-05-01 13:19 | 43.41022 | 7.17204 | 2985 ft | 179 kts | 1° |
| 2026-05-01 13:19 | 43.43533 | 7.16790 | 3010 ft | 181 kts | 0° |
| 2026-05-01 13:20 | 43.44784 | 7.16581 | 3009 ft | 181 kts | 0° |
| 2026-05-01 13:20 | 43.46036 | 7.16373 | 3011 ft | 181 kts | 0° |
| 2026-05-01 13:20 | 43.47288 | 7.16207 | 3010 ft | 181 kts | 2° |
| 2026-05-01 13:21 | 43.49809 | 7.15976 | 3014 ft | 183 kts | 3° |
| 2026-05-01 13:21 | 43.51104 | 7.15860 | 3010 ft | 185 kts | 3° |
| 2026-05-01 13:21 | 43.52395 | 7.15737 | 2785 ft | 188 kts | 3° |
| 2026-05-01 13:21 | 43.53688 | 7.15614 | 2525 ft | 185 kts | 2° |
| 2026-05-01 13:22 | 43.54966 | 7.15493 | 2257 ft | 183 kts | 3° |
| 2026-05-01 13:22 | 43.56221 | 7.15374 | 2011 ft | 179 kts | 2° |
| 2026-05-01 13:22 | 43.57451 | 7.15266 | 1748 ft | 174 kts | 2° |
| 2026-05-01 13:22 | 43.58613 | 7.15162 | 1522 ft | 160 kts | 2° |
| 2026-05-01 13:23 | 43.59639 | 7.15273 | 1367 ft | 139 kts | 18° |
| 2026-05-01 13:23 | 43.60585 | 7.15526 | 1012 ft | 140 kts | 16° |
| 2026-05-01 13:23 | 43.61513 | 7.15891 | 719 ft | 137 kts | 26° |
| 2026-05-01 13:23 | 43.62339 | 7.16495 | 489 ft | 130 kts | 38° |
| 2026-05-01 13:24 | 43.63007 | 7.17294 | 222 ft | 127 kts | 49° |
| 2026-05-01 13:24 | 43.63649 | 7.18332 | 290 ft | 155 kts | 54° |
| 2026-05-01 13:24 | 43.64442 | 7.19422 | 463 ft | 168 kts | 45° |
| 2026-05-01 13:25 | 43.66006 | 7.21550 | 23 ft | 135 kts | 46° |
| 2026-05-01 13:25 | 43.66490 | 7.22206 | 23 ft | 57 kts | 45° |
| 2026-05-01 13:25 | 43.66696 | 7.22476 | 21 ft | 23 kts | 25° |
| 2026-05-01 13:25 | 43.66800 | 7.22416 | 21 ft | 8 kts | 312° |
| 2026-05-01 13:26 | 43.66801 | 7.22413 | 21 ft | 0 kts | 312° |
| 2026-05-01 13:26 | 43.66803 | 7.22410 | 21 ft | 4 kts | 302° |
| 2026-05-01 13:27 | 43.66800 | 7.22321 | 23 ft | 11 kts | 235° |
| 2026-05-01 13:27 | 43.66755 | 7.22249 | 22 ft | 9 kts | 228° |
| 2026-05-01 13:27 | 43.66678 | 7.22143 | 22 ft | 6 kts | 223° |
| 2026-05-01 13:28 | 43.66625 | 7.22074 | 22 ft | 4 kts | 224° |
| 2026-05-01 13:28 | 43.66607 | 7.22050 | 22 ft | 3 kts | 224° |
| 2026-05-01 13:29 | 43.66518 | 7.21924 | 22 ft | 13 kts | 225° |
| 2026-05-01 13:29 | 43.66404 | 7.21767 | 22 ft | 10 kts | 225° |
| 2026-05-01 13:30 | 43.66047 | 7.21279 | 22 ft | 26 kts | 224° |
| 2026-05-01 13:31 | 43.65827 | 7.20974 | 22 ft | 11 kts | 225° |
| 2026-05-01 13:31 | 43.65878 | 7.20847 | 22 ft | 6 kts | 349° |
| 2026-05-01 13:32 | 43.65941 | 7.20833 | 22 ft | 4 kts | 351° |
| 2026-05-01 13:33 | 43.66001 | 7.20804 | 23 ft | 4 kts | 297° |
| 2026-05-01 13:33 | 43.65995 | 7.20715 | 22 ft | 5 kts | 260° |
| 2026-05-01 13:34 | 43.65993 | 7.20703 | 22 ft | 0 kts | 259° |